Lake Zurich, Illinois
Current Conditions -  °F | °C
As of 7:52 PM on Monday 24 Nov 2014 (Local Time) from KPWK Reporting Station
Overcast Overcast  
Wind Chill: -11°   Ceiling: 1600
Heat Index: -3°   Visibility: 10mi
Dew Point: -7°   Wind: 22mph
Humidity: 78%   Direction: 260°W
Pressure: 29.71"   Gusts: 32mph
Location:  42.2°N, 88.09°W
Report Text: KPWK 250152Z 26019G28KT 10SM OVC016 M03/M07 A2971 RMK AO2 PK WND 27028/0151 SLP067 T10331067
Loading
Personal Weather Stations






























Interactive Weather Map New forecast layout! Learn more

10-Day Weather Forecast

Advertisements
Track Severe Weather on mobile